Flight Track Log - Related Links

Times and Time Zones

All times are in EDT time to prevent confusion due to time zone crossing. See the N659E flight status page for this flight to view local times or setup timezone preferences in your user account.

Time Position Orientation Groundspeed Altitude Reporting Facility
EDT Latitude Longitude Course Direction KTS MPH feet Rate Location/Type
Fri 04:02:40 PM 42.4667 -79.3500 241° Southwest 129 148 3,000  Level Buffalo TRACON
Fri 04:04:00 PM 42.4273 -79.3894 216° Southwest  Level FlightAware Approximate
Fri 04:11:00 PM 42.2934 -79.6842 237° Southwest  Level FlightAware Approximate
Fri 04:12:00 PM 42.2736 -79.7259 237° Southwest  Level FlightAware Approximate
Fri 04:13:00 PM 42.2538 -79.7676 237° Southwest  Level FlightAware Approximate
Fri 04:14:00 PM 42.2339 -79.8093 237° Southwest  Level FlightAware Approximate
Fri 04:15:00 PM 42.2140 -79.8510 237° Southwest  Level FlightAware Approximate
Fri 04:16:00 PM 42.1941 -79.8926 237° Southwest  Level FlightAware Approximate
Fri 04:17:00 PM 42.1742 -79.9342 237° Southwest  Level FlightAware Approximate
Fri 04:18:00 PM 42.1549 -79.9763 239° Southwest  Level FlightAware Approximate
Fri 04:19:00 PM 42.1359 -80.0186 239° Southwest  Level FlightAware Approximate
Fri 04:20:00 PM 42.1169 -80.0610 239° Southwest  Level FlightAware Approximate
Fri 04:21:00 PM 42.0979 -80.1033 239° Southwest  Level FlightAware Approximate
Fri 04:22:00 PM 42.0789 -80.1456 239° Southwest  Level FlightAware Approximate
Fri 04:23:00 PM 42.0598 -80.1878 239° Southwest  Level FlightAware Approximate
Fri 04:24:00 PM 42.0407 -80.2301 239° Southwest  Level FlightAware Approximate
Fri 04:25:00 PM 42.0217 -80.2723 239° Southwest  Level FlightAware Approximate
Fri 04:26:00 PM 41.9999 -80.3119 232° Southwest  Level FlightAware Approximate
Fri 04:27:00 PM 41.9771 -80.3506 232° Southwest  Level FlightAware Approximate
Fri 04:28:00 PM 41.9542 -80.3893 232° Southwest  Level FlightAware Approximate
Fri 04:29:00 PM 41.9314 -80.4279 232° Southwest  Level FlightAware Approximate
Fri 04:30:00 PM 41.9086 -80.4665 232° Southwest  Level FlightAware Approximate
Fri 04:31:00 PM 41.8857 -80.5051 232° Southwest  Level FlightAware Approximate
Fri 04:32:00 PM 41.8629 -80.5437 231° Southwest  Level FlightAware Approximate
Fri 04:33:00 PM 41.8400 -80.5822 231° Southwest  Level FlightAware Approximate
Fri 04:34:00 PM 41.8171 -80.6207 231° Southwest  Level FlightAware Approximate
Fri 04:35:00 PM 41.8193 -80.6700 273° West  Level Estimated
Fri 04:35:31 PM 41.8031 -80.9203 273° West 146 168 8,000  Level Cleveland Center
Fri 04:36:00 PM 41.8215 -80.7192 273° West  Level Estimated
Fri 04:36:44 PM 41.7883 -80.9842 253° West 149 171 8,000  Level Cleveland Center
Fri 04:37:00 PM 41.8237 -80.7684 273° West  Level Estimated
Fri 04:37:45 PM 41.7778 -81.0369 255° West 150 173 8,000  Level Cleveland Center
Fri 04:38:00 PM 41.8258 -80.8177 273° West  Level Estimated
Fri 04:38:46 PM 41.7650 -81.0925 253° West 151 174 8,000  Level Cleveland Center
Fri 04:39:00 PM 41.8279 -80.8669 273° West  Level Estimated
Fri 04:39:47 PM 41.7564 -81.1453 258° West 150 173 8,000  Level Cleveland Center
Fri 04:40:00 PM 41.8300 -80.9162 273° West  Level Estimated
Fri 04:40:41 PM 41.7458 -81.1953 254° West 149 171 8,000  Level Cleveland Center
Fri 04:41:36 PM 41.7350 -81.2425 253° West 150 173 8,100  Climbing Cleveland Center
Fri 04:43:00 PM 41.7388 -81.3113 274° West  Level Estimated
Fri 04:43:49 PM 41.7114 -81.3619 274° West 151 174 8,000  Level Cleveland Center
Fri 04:44:56 PM 41.6964 -81.4231 252° West 153 176 8,100 47 Climbing Cleveland Center
Fri 04:45:57 PM 41.6875 -81.4783 258° West 154 177 8,100  Level Cleveland Center
Fri 04:47:03 PM 41.6725 -81.5422 253° West 155 178 8,100  Level Cleveland Center
Fri 04:48:10 PM 41.6594 -81.6031 254° West 154 177 8,100  Level Cleveland Center
Fri 04:48:53 PM 41.6528 -81.6447 258° West 154 177 8,100  Level Cleveland Center
Fri 04:50:00 PM 41.6397 -81.7028 253° West 151 174 8,100  Level Cleveland Center
Fri 04:51:00 PM 41.6289 -81.7556 255° West 152 175 8,100  Level Cleveland Center
Fri 04:52:01 PM 41.6156 -81.8108 252° West 153 176 8,100 -52 Level Cleveland Center
Fri 04:52:56 PM 41.6069 -81.8578 256° West 152 175 8,000 -45 Descending Cleveland Center
Fri 04:54:14 PM 41.5914 -81.9325 254° West 151 174 8,000 43 Level Cleveland Center
Fri 04:55:15 PM 41.5783 -81.9878 252° West 152 175 8,100 49 Climbing Cleveland Center
Fri 04:56:16 PM 41.5692 -82.0431 258° West 152 175 8,100  Level Cleveland Center
Fri 04:57:16 PM 41.5539 -82.0953 249° West 153 176 8,100 -50 Level Cleveland Center
Fri 04:58:17 PM 41.5428 -82.1533 256° West 154 177 8,000  Descending Cleveland Center
Fri 04:59:12 PM 41.5317 -82.2031 253° West 155 178 8,100 58 Climbing Cleveland Center
Fri 05:00:00 PM 41.5247 -82.2444 257° West 154 177 8,100  Level Cleveland Center
Fri 05:01:07 PM 41.5092 -82.3050 251° West 151 174 8,100  Level Cleveland Center
Fri 05:02:02 PM 41.5000 -82.3575 257° West 152 175 8,100 -58 Level Cleveland Center
Fri 05:02:50 PM 41.4892 -82.3961 249° West 152 175 8,000  Descending Cleveland Center
Fri 05:03:57 PM 41.4756 -82.4594 254° West 154 177 8,100 47 Climbing Cleveland Center
Fri 05:04:58 PM 41.4642 -82.5144 255° West 153 176 8,100  Level Cleveland Center
Fri 05:05:59 PM 41.4508 -82.5667 251° West 154 177 8,100  Level Cleveland Center
Fri 05:07:00 PM 41.4414 -82.6219 257° West 152 175 8,100  Level Cleveland Center
Fri 05:08:00 PM 41.4342 -82.6797 261° West 149 171 8,100  Level Cleveland Center
Fri 05:09:07 PM 41.4372 -82.7408 274° West 143 165 8,100  Level Cleveland Center
Fri 05:10:14 PM 41.4403 -82.7964 274° West 143 165 8,100  Level Cleveland Center
Fri 05:11:15 PM 41.4433 -82.8544 274° West 145 167 8,100  Level Cleveland Center
Fri 05:12:16 PM 41.4444 -82.9072 272° West 145 167 8,100 -10 Level Cleveland Center
Fri 05:14:00 PM 41.4487 -82.9979 274° West  Level FlightAware Approximate
Fri 05:21:00 PM 41.4650 -83.3640 274° West  Level FlightAware Approximate
Fri 05:21:26 PM 41.4758 -83.3906 273° West 148 170 8,000  Level Chicago Center
Fri 05:22:00 PM 41.4672 -83.4163 273° West  Level FlightAware Approximate
Fri 05:22:28 PM 41.4775 -83.4442 272° West 146 168 8,000  Level Chicago Center
Fri 05:23:00 PM 41.4694 -83.4687 273° West  Level FlightAware Approximate
Fri 05:23:30 PM 41.4811 -83.5089 274° West 147 169 8,000  Level Chicago Center
Fri 05:24:00 PM 41.4716 -83.5210 273° West  Level FlightAware Approximate
Fri 05:24:32 PM 41.4850 -83.5631 275° West 146 168 8,000  Level Chicago Center
Fri 05:25:00 PM 41.4738 -83.5733 273° West  Level FlightAware Approximate
Fri 05:25:34 PM 41.4867 -83.6169 272° West 146 168 8,000  Level Chicago Center
Fri 05:26:00 PM 41.4759 -83.6257 273° West  Level FlightAware Approximate
Fri 05:26:37 PM 41.4886 -83.6714 273° West 146 168 8,000  Level Chicago Center
Fri 05:27:39 PM 41.4917 -83.7242 274° West 146 168 8,000  Level Chicago Center
Fri 05:28:41 PM 41.4944 -83.7792 274° West 146 168 8,000  Level Chicago Center
Fri 05:29:43 PM 41.4967 -83.8450 273° West 148 170 8,000  Level Chicago Center
Fri 05:30:45 PM 41.5000 -83.8983 275° West 146 168 8,000  Level Chicago Center
Fri 05:31:47 PM 41.5025 -83.9531 274° West 147 169 8,000  Level Chicago Center
Fri 05:32:49 PM 41.5042 -84.0067 272° West 146 168 8,000  Level Chicago Center
Fri 05:33:51 PM 41.5058 -84.0597 272° West 145 167 8,000  Level Chicago Center
Fri 05:34:53 PM 41.5081 -84.1131 273° West 145 167 8,000  Level Chicago Center
Fri 05:35:55 PM 41.5114 -84.1789 274° West 146 168 8,000  Level Chicago Center
Fri 05:36:57 PM 41.5139 -84.2322 274° West 146 168 8,000  Level Chicago Center
Fri 05:37:59 PM 41.5153 -84.2872 272° West 147 169 8,000  Level Chicago Center
Fri 05:39:02 PM 41.5178 -84.3411 274° West 147 169 8,000  Level Chicago Center
Fri 05:40:04 PM 41.5192 -84.3958 272° West 147 169 8,000  Level Chicago Center
Fri 05:41:06 PM 41.5214 -84.4500 273° West 147 169 8,000  Level Chicago Center
Fri 05:42:08 PM 41.5244 -84.5156 274° West 147 169 8,000  Level Chicago Center
Fri 05:43:10 PM 41.5264 -84.5686 273° West 146 168 8,000  Level Chicago Center
Fri 05:44:12 PM 41.5286 -84.6244 273° West 148 170 8,000  Level Chicago Center
Fri 05:45:14 PM 41.5239 -84.6781 263° West 147 169 8,000  Level Chicago Center
Fri 05:46:16 PM 41.5139 -84.7311 256° West 146 168 8,000  Level Chicago Center
Fri 05:47:18 PM 41.5058 -84.7844 259° West 146 168 8,000  Level Chicago Center
Fri 05:48:20 PM 41.4964 -84.8483 259° West 147 169 8,000  Level Chicago Center
Fri 05:49:22 PM 41.4892 -84.9025 260° West 148 170 8,000  Level Chicago Center
Fri 05:50:24 PM 41.4808 -84.9553 258° West 147 169 8,000  Level Chicago Center
Fri 05:51:26 PM 41.4731 -85.0089 259° West 147 169 8,000  Level Chicago Center
Fri 05:52:29 PM 41.4656 -85.0642 260° West 150 173 8,000  Level Chicago Center
Fri 05:53:31 PM 41.4578 -85.1181 259° West 149 171 8,000  Level Chicago Center
Fri 05:54:33 PM 41.4486 -85.1842 260° West 150 173 8,000  Level Chicago Center
Fri 05:55:35 PM 41.4406 -85.2389 259° West 151 174 8,000  Level Chicago Center
Fri 05:56:37 PM 41.4328 -85.2944 259° West 151 174 8,000  Level Chicago Center
Fri 05:57:39 PM 41.4242 -85.3494 258° West 151 174 8,000  Level Chicago Center
Fri 05:58:41 PM 41.4158 -85.4047 259° West 151 174 8,000  Level Chicago Center
Fri 05:59:43 PM 41.4081 -85.4606 259° West 152 175 8,000  Level Chicago Center
Fri 06:00:45 PM 41.4000 -85.5158 259° West 152 175 8,000  Level Chicago Center
Fri 06:01:47 PM 41.3897 -85.5836 259° West 154 177 8,000  Level Chicago Center
Fri 06:02:49 PM 41.3817 -85.6389 259° West 153 176 8,000  Level Chicago Center
Fri 06:03:51 PM 41.3744 -85.6928 260° West 150 173 8,000  Level Chicago Center
Fri 06:04:53 PM 41.3653 -85.7483 258° West 152 175 8,000 48 Level Chicago Center
Fri 06:05:55 PM 41.3572 -85.8025 259° West 150 173 8,100 48 Climbing Chicago Center
Fri 06:06:58 PM 41.3494 -85.8558 259° West 147 169 8,100  Level Chicago Center
Fri 06:08:00 PM 41.3392 -85.9219 258° West 150 173 8,100  Level Chicago Center
Fri 06:09:02 PM 41.3314 -85.9761 259° West 149 171 8,100  Level Chicago Center
Fri 06:10:04 PM 41.3225 -86.0300 258° West 150 173 8,100  Level Chicago Center
Fri 06:11:06 PM 41.3150 -86.0853 260° West 151 174 8,100  Level Chicago Center
Fri 06:12:08 PM 41.3064 -86.1383 258° West 150 173 8,100  Level Chicago Center
Fri 06:13:10 PM 41.2983 -86.1922 259° West 148 170 8,100  Level Chicago Center
Fri 06:14:12 PM 41.2881 -86.2567 258° West 149 171 8,100  Level Chicago Center
Fri 06:15:14 PM 41.2797 -86.3103 258° West 148 170 8,100  Level Chicago Center
Fri 06:16:16 PM 41.2719 -86.3644 259° West 149 171 8,100  Level Chicago Center
Fri 06:17:18 PM 41.2642 -86.4189 259° West 150 173 8,100  Level Chicago Center
Fri 06:18:20 PM 41.2556 -86.4742 258° West 152 175 8,100  Level Chicago Center
Fri 06:19:22 PM 41.2461 -86.5269 257° West 149 171 8,100  Level Chicago Center
Fri 06:20:24 PM 41.2361 -86.5925 259° West 150 173 8,100  Level Chicago Center
Fri 06:21:27 PM 41.2292 -86.6461 260° West 148 170 8,100  Level Chicago Center
Fri 06:22:29 PM 41.2214 -86.6986 259° West 146 168 8,100  Level Chicago Center
Fri 06:23:31 PM 41.2133 -86.7475 258° West 144 166 8,100  Level Chicago Center
Fri 06:24:33 PM 41.2039 -86.8089 258° West 141 162 8,100  Level Chicago Center
Fri 06:25:35 PM 41.1944 -86.8614 257° West 146 168 8,100  Level Chicago Center
Fri 06:26:37 PM 41.1867 -86.9122 259° West 142 163 8,100  Level Chicago Center
Fri 06:27:39 PM 41.1844 -86.9642 267° West 142 163 8,100  Level Chicago Center
Fri 06:28:41 PM 41.1897 -87.0181 277° West 148 170 8,100 -48 Level Chicago Center
Fri 06:29:43 PM 41.1967 -87.0842 278° West 151 174 8,000 -48 Descending Chicago Center
Fri 06:30:45 PM 41.2039 -87.1386 280° West 150 173 8,000 -194 Level Chicago Center
Fri 06:31:47 PM 41.2081 -87.1950 276° West 152 175 7,600 -435 Descending Chicago Center
Fri 06:32:49 PM 41.2153 -87.2556 279° West 162 186 7,100 -484 Descending Chicago Center
Fri 06:33:51 PM 41.2206 -87.3153 277° West 165 190 6,600 -532 Descending Chicago Center
Fri 06:34:53 PM 41.2289 -87.3867 279° West 164 189 6,000 -484 Descending Chicago Center
Fri 06:35:55 PM 41.2350 -87.4469 278° West 165 190 5,600 -435 Descending Chicago Center
Fri 06:36:57 PM 41.2408 -87.5064 277° West 164 189 5,100 -288 Descending Chicago Center
Fri 06:38:00 PM 41.2475 -87.5631 279° West 161 185 5,000 -192 Descending Chicago Center
Fri 06:39:02 PM 41.2525 -87.6153 277° West 153 176 4,700 -484 Descending Chicago Center
Fri 06:40:04 PM 41.2594 -87.6831 278° West 153 176 4,000 -339 Descending Chicago Center
Fri 06:41:06 PM 41.2650 -87.7364 278° West 151 174 4,000  Level Chicago Center
Fri 06:42:08 PM 41.2694 -87.7847 277° West 142 163 4,000  Level Chicago Center
Fri 06:43:10 PM 41.2906 -87.8306 302° West 148 170 4,000  Level Chicago Center
Fri 06:44:12 PM 41.3139 -87.8742 305° West 148 170 4,000  Level Chicago Center
Fri 06:45:14 PM 41.3372 -87.9186 305° West 147 169 4,000  Level Chicago Center
Fri 06:46:16 PM 41.3803 -87.9511 330° Northwest 154 177 4,000  Level Chicago Center
Fri 06:47:18 PM 41.4186 -87.9697 340° North 153 176 4,000  Level Chicago Center
Fri 06:48:20 PM 41.4567 -87.9914 337° Northwest 152 175 4,000  Level Chicago Center
Fri 06:49:23 PM 41.5039 -88.0172 338° Northwest 154 177 4,000  Level Chicago Center
Fri 06:50:25 PM 41.5422 -88.0394 337° Northwest 153 176 4,000  Level Chicago Center
Fri 06:51:27 PM 41.5822 -88.0625 337° Northwest 155 178 4,000  Level Chicago Center
Fri 06:52:29 PM 41.6217 -88.0850 337° Northwest 156 180 4,000 -97 Level Chicago Center
Fri 06:53:31 PM 41.6594 -88.1061 337° Northwest 152 175 3,800 -387 Descending Chicago Center
Fri 06:54:33 PM 41.7036 -88.1311 337° Northwest 148 170 3,200 -387 Descending Chicago Center
Fri 06:55:35 PM 41.7406 -88.1533 336° Northwest 147 169 3,000 -97 Descending Chicago Center
Fri 06:56:37 PM 41.7739 -88.1722 337° Northwest 140 161 3,000  Level Chicago Center
Fri 06:57:39 PM 41.8056 -88.1900 337° Northwest 132 152 3,000 -97 Level Chicago Center
Fri 06:58:41 PM 41.8400 -88.2086 338° Northwest 131 151 2,800 -339 Descending Chicago Center
Fri 06:59:43 PM 41.8872 -88.2242 346° North 139 160 2,300 -532 Descending Chicago Center
Fri 07:00:45 PM 41.9253 -88.2178 North 139 160 1,700 -532 Descending Chicago Center
Fri 07:01:47 PM 41.9158 -88.2486 248° West 126 145 1,200 -484 Descending Chicago Center

Login

Don't have an account? Register now (free) for customized features, flight alerts, and more!